sensor_id;sensor_type;location;lat;lon;timestamp;P1;durP1;ratioP1;P2;durP2;ratioP2
18772;SDS011;9515;50.810;4.418;2023-02-28T00:00:33;18.60;;;10.17;;
18772;SDS011;9515;50.810;4.418;2023-02-28T00:02:59;13.33;;;9.77;;
18772;SDS011;9515;50.810;4.418;2023-02-28T00:05:25;15.47;;;9.53;;
18772;SDS011;9515;50.810;4.418;2023-02-28T00:07:52;18.90;;;9.50;;
18772;SDS011;9515;50.810;4.418;2023-02-28T00:10:19;14.90;;;10.03;;
18772;SDS011;9515;50.810;4.418;2023-02-28T00:12:48;14.97;;;9.10;;
18772;SDS011;9515;50.810;4.418;2023-02-28T00:15:14;11.27;;;8.87;;
18772;SDS011;9515;50.810;4.418;2023-02-28T00:17:40;13.20;;;8.47;;
18772;SDS011;9515;50.810;4.418;2023-02-28T00:20:06;12.40;;;8.50;;
18772;SDS011;9515;50.810;4.418;2023-02-28T00:22:33;13.07;;;8.90;;
18772;SDS011;9515;50.810;4.418;2023-02-28T00:24:59;13.17;;;9.07;;
18772;SDS011;9515;50.810;4.418;2023-02-28T00:27:25;12.70;;;8.17;;
18772;SDS011;9515;50.810;4.418;2023-02-28T00:29:50;11.77;;;8.73;;
18772;SDS011;9515;50.810;4.418;2023-02-28T00:32:16;13.30;;;8.43;;
18772;SDS011;9515;50.810;4.418;2023-02-28T00:34:43;10.10;;;7.77;;
18772;SDS011;9515;50.810;4.418;2023-02-28T00:37:09;16.57;;;8.53;;
18772;SDS011;9515;50.810;4.418;2023-02-28T00:39:39;14.80;;;8.37;;
18772;SDS011;9515;50.810;4.418;2023-02-28T00:42:04;11.90;;;8.60;;
18772;SDS011;9515;50.810;4.418;2023-02-28T00:44:31;12.17;;;8.20;;
18772;SDS011;9515;50.810;4.418;2023-02-28T00:46:57;10.80;;;8.00;;
18772;SDS011;9515;50.810;4.418;2023-02-28T00:49:24;11.07;;;7.60;;
18772;SDS011;9515;50.810;4.418;2023-02-28T00:51:51;12.10;;;7.57;;
18772;SDS011;9515;50.810;4.418;2023-02-28T00:54:17;13.13;;;8.10;;
18772;SDS011;9515;50.810;4.418;2023-02-28T00:56:44;12.87;;;7.87;;
18772;SDS011;9515;50.810;4.418;2023-02-28T00:59:11;13.43;;;8.43;;
18772;SDS011;9515;50.810;4.418;2023-02-28T01:01:37;11.50;;;8.03;;
18772;SDS011;9515;50.810;4.418;2023-02-28T01:04:03;9.10;;;7.13;;
18772;SDS011;9515;50.810;4.418;2023-02-28T01:06:29;10.83;;;7.47;;
18772;SDS011;9515;50.810;4.418;2023-02-28T01:08:56;12.23;;;7.47;;
18772;SDS011;9515;50.810;4.418;2023-02-28T01:11:22;13.90;;;7.37;;
18772;SDS011;9515;50.810;4.418;2023-02-28T01:13:48;12.13;;;7.83;;
18772;SDS011;9515;50.810;4.418;2023-02-28T01:16:13;12.67;;;7.57;;
18772;SDS011;9515;50.810;4.418;2023-02-28T01:18:39;14.00;;;7.40;;
18772;SDS011;9515;50.810;4.418;2023-02-28T01:21:06;11.13;;;7.90;;
18772;SDS011;9515;50.810;4.418;2023-02-28T01:23:33;10.53;;;8.07;;
18772;SDS011;9515;50.810;4.418;2023-02-28T01:26:06;11.50;;;7.70;;
18772;SDS011;9515;50.810;4.418;2023-02-28T01:28:50;11.60;;;7.80;;
18772;SDS011;9515;50.810;4.418;2023-02-28T01:31:17;9.30;;;7.27;;
18772;SDS011;9515;50.810;4.418;2023-02-28T01:33:43;12.33;;;7.53;;
18772;SDS011;9515;50.810;4.418;2023-02-28T01:36:19;12.97;;;8.27;;
18772;SDS011;9515;50.810;4.418;2023-02-28T01:38:46;11.47;;;7.00;;
18772;SDS011;9515;50.810;4.418;2023-02-28T01:41:17;10.93;;;7.57;;
18772;SDS011;9515;50.810;4.418;2023-02-28T01:46:11;12.07;;;7.90;;
18772;SDS011;9515;50.810;4.418;2023-02-28T01:48:40;12.57;;;8.20;;
18772;SDS011;9515;50.810;4.418;2023-02-28T01:51:17;12.93;;;7.77;;
18772;SDS011;9515;50.810;4.418;2023-02-28T01:53:51;13.17;;;8.00;;
18772;SDS011;9515;50.810;4.418;2023-02-28T01:56:23;11.77;;;7.87;;
18772;SDS011;9515;50.810;4.418;2023-02-28T01:58:52;10.00;;;8.00;;
18772;SDS011;9515;50.810;4.418;2023-02-28T02:01:19;11.70;;;7.40;;
18772;SDS011;9515;50.810;4.418;2023-02-28T02:03:50;10.60;;;7.80;;
18772;SDS011;9515;50.810;4.418;2023-02-28T02:06:41;9.60;;;8.40;;
18772;SDS011;9515;50.810;4.418;2023-02-28T02:09:09;11.50;;;7.73;;
18772;SDS011;9515;50.810;4.418;2023-02-28T02:11:36;10.23;;;7.47;;
18772;SDS011;9515;50.810;4.418;2023-02-28T02:17:14;11.30;;;7.83;;
18772;SDS011;9515;50.810;4.418;2023-02-28T02:23:01;11.63;;;8.67;;
18772;SDS011;9515;50.810;4.418;2023-02-28T02:25:32;12.57;;;8.83;;
18772;SDS011;9515;50.810;4.418;2023-02-28T02:30:54;13.43;;;8.70;;
18772;SDS011;9515;50.810;4.418;2023-02-28T02:34:06;13.93;;;8.33;;
18772;SDS011;9515;50.810;4.418;2023-02-28T02:42:31;11.70;;;8.40;;
18772;SDS011;9515;50.810;4.418;2023-02-28T02:48:14;11.57;;;9.20;;
18772;SDS011;9515;50.810;4.418;2023-02-28T02:50:45;17.57;;;9.40;;
18772;SDS011;9515;50.810;4.418;2023-02-28T02:53:15;22.27;;;10.17;;
18772;SDS011;9515;50.810;4.418;2023-02-28T02:55:47;13.67;;;10.00;;
18772;SDS011;9515;50.810;4.418;2023-02-28T02:58:19;13.27;;;9.37;;
18772;SDS011;9515;50.810;4.418;2023-02-28T03:00:53;14.03;;;10.20;;
18772;SDS011;9515;50.810;4.418;2023-02-28T03:03:22;16.10;;;9.90;;
18772;SDS011;9515;50.810;4.418;2023-02-28T03:05:54;11.90;;;8.83;;
18772;SDS011;9515;50.810;4.418;2023-02-28T03:08:33;13.70;;;9.50;;
18772;SDS011;9515;50.810;4.418;2023-02-28T03:11:01;16.97;;;9.93;;
18772;SDS011;9515;50.810;4.418;2023-02-28T03:21:59;16.03;;;10.37;;
18772;SDS011;9515;50.810;4.418;2023-02-28T03:27:06;14.53;;;9.90;;
18772;SDS011;9515;50.810;4.418;2023-02-28T03:35:11;17.00;;;10.47;;
18772;SDS011;9515;50.810;4.418;2023-02-28T03:37:47;17.30;;;11.17;;
18772;SDS011;9515;50.810;4.418;2023-02-28T03:40:19;16.40;;;11.03;;
18772;SDS011;9515;50.810;4.418;2023-02-28T03:42:48;15.77;;;10.93;;
18772;SDS011;9515;50.810;4.418;2023-02-28T03:45:23;14.87;;;10.50;;
18772;SDS011;9515;50.810;4.418;2023-02-28T03:47:54;16.67;;;11.27;;
18772;SDS011;9515;50.810;4.418;2023-02-28T03:50:34;19.83;;;11.33;;
18772;SDS011;9515;50.810;4.418;2023-02-28T03:53:16;21.97;;;11.30;;
18772;SDS011;9515;50.810;4.418;2023-02-28T03:56:11;16.20;;;10.60;;
18772;SDS011;9515;50.810;4.418;2023-02-28T04:01:28;14.70;;;10.33;;
18772;SDS011;9515;50.810;4.418;2023-02-28T04:04:00;17.60;;;11.07;;
18772;SDS011;9515;50.810;4.418;2023-02-28T04:06:26;17.10;;;11.57;;
18772;SDS011;9515;50.810;4.418;2023-02-28T04:08:52;15.60;;;11.40;;
18772;SDS011;9515;50.810;4.418;2023-02-28T04:13:46;16.87;;;11.30;;
18772;SDS011;9515;50.810;4.418;2023-02-28T04:16:12;17.80;;;11.70;;
18772;SDS011;9515;50.810;4.418;2023-02-28T04:18:41;16.40;;;11.60;;
18772;SDS011;9515;50.810;4.418;2023-02-28T04:21:08;18.13;;;12.07;;
18772;SDS011;9515;50.810;4.418;2023-02-28T04:23:35;19.30;;;11.50;;
18772;SDS011;9515;50.810;4.418;2023-02-28T04:26:01;18.03;;;12.10;;
18772;SDS011;9515;50.810;4.418;2023-02-28T04:28:27;19.93;;;12.80;;
18772;SDS011;9515;50.810;4.418;2023-02-28T04:30:56;17.70;;;12.00;;
18772;SDS011;9515;50.810;4.418;2023-02-28T04:33:23;21.37;;;12.87;;
18772;SDS011;9515;50.810;4.418;2023-02-28T04:35:57;18.07;;;11.87;;
18772;SDS011;9515;50.810;4.418;2023-02-28T04:38:27;17.53;;;12.73;;
18772;SDS011;9515;50.810;4.418;2023-02-28T04:40:56;15.97;;;12.00;;
18772;SDS011;9515;50.810;4.418;2023-02-28T04:43:22;19.10;;;12.07;;
18772;SDS011;9515;50.810;4.418;2023-02-28T04:45:48;21.10;;;12.73;;
18772;SDS011;9515;50.810;4.418;2023-02-28T04:48:14;18.90;;;11.77;;
18772;SDS011;9515;50.810;4.418;2023-02-28T04:50:40;19.67;;;13.00;;
18772;SDS011;9515;50.810;4.418;2023-02-28T04:53:05;16.83;;;12.90;;
18772;SDS011;9515;50.810;4.418;2023-02-28T04:55:31;23.47;;;13.43;;
18772;SDS011;9515;50.810;4.418;2023-02-28T04:57:56;20.73;;;13.60;;
18772;SDS011;9515;50.810;4.418;2023-02-28T05:00:22;19.03;;;12.87;;
18772;SDS011;9515;50.810;4.418;2023-02-28T05:02:48;21.27;;;12.87;;
18772;SDS011;9515;50.810;4.418;2023-02-28T05:05:14;21.33;;;13.77;;
18772;SDS011;9515;50.810;4.418;2023-02-28T05:07:43;21.67;;;14.00;;
18772;SDS011;9515;50.810;4.418;2023-02-28T05:10:09;18.57;;;13.10;;
18772;SDS011;9515;50.810;4.418;2023-02-28T05:12:35;17.63;;;13.53;;
18772;SDS011;9515;50.810;4.418;2023-02-28T05:15:01;21.33;;;13.00;;
18772;SDS011;9515;50.810;4.418;2023-02-28T05:17:29;20.47;;;12.90;;
18772;SDS011;9515;50.810;4.418;2023-02-28T05:19:55;21.13;;;13.60;;
18772;SDS011;9515;50.810;4.418;2023-02-28T05:22:21;19.93;;;14.00;;
18772;SDS011;9515;50.810;4.418;2023-02-28T05:24:47;21.00;;;13.63;;
18772;SDS011;9515;50.810;4.418;2023-02-28T05:27:12;17.50;;;12.93;;
18772;SDS011;9515;50.810;4.418;2023-02-28T05:29:38;19.20;;;13.13;;
18772;SDS011;9515;50.810;4.418;2023-02-28T05:32:08;19.80;;;13.53;;
18772;SDS011;9515;50.810;4.418;2023-02-28T05:34:35;24.57;;;13.73;;
18772;SDS011;9515;50.810;4.418;2023-02-28T05:37:05;18.87;;;12.30;;
18772;SDS011;9515;50.810;4.418;2023-02-28T05:39:31;19.73;;;13.33;;
18772;SDS011;9515;50.810;4.418;2023-02-28T05:41:57;21.27;;;13.57;;
18772;SDS011;9515;50.810;4.418;2023-02-28T05:44:23;22.93;;;12.90;;
18772;SDS011;9515;50.810;4.418;2023-02-28T05:46:49;17.83;;;12.70;;
18772;SDS011;9515;50.810;4.418;2023-02-28T05:49:15;18.53;;;12.83;;
18772;SDS011;9515;50.810;4.418;2023-02-28T05:51:40;20.63;;;12.70;;
18772;SDS011;9515;50.810;4.418;2023-02-28T05:54:06;16.37;;;12.20;;
18772;SDS011;9515;50.810;4.418;2023-02-28T05:56:32;18.77;;;12.70;;
18772;SDS011;9515;50.810;4.418;2023-02-28T05:59:00;21.53;;;13.27;;
18772;SDS011;9515;50.810;4.418;2023-02-28T06:04:07;17.87;;;12.67;;
18772;SDS011;9515;50.810;4.418;2023-02-28T06:06:34;21.23;;;13.70;;
18772;SDS011;9515;50.810;4.418;2023-02-28T06:09:00;15.60;;;12.13;;
18772;SDS011;9515;50.810;4.418;2023-02-28T06:11:27;17.87;;;12.93;;
18772;SDS011;9515;50.810;4.418;2023-02-28T06:13:56;17.73;;;12.10;;
18772;SDS011;9515;50.810;4.418;2023-02-28T06:16:24;20.13;;;12.23;;
18772;SDS011;9515;50.810;4.418;2023-02-28T06:18:50;20.23;;;13.20;;
18772;SDS011;9515;50.810;4.418;2023-02-28T06:21:17;22.70;;;12.77;;
18772;SDS011;9515;50.810;4.418;2023-02-28T06:23:43;21.07;;;12.67;;
18772;SDS011;9515;50.810;4.418;2023-02-28T06:26:10;19.70;;;12.67;;
18772;SDS011;9515;50.810;4.418;2023-02-28T06:28:35;21.70;;;13.50;;
18772;SDS011;9515;50.810;4.418;2023-02-28T06:31:08;19.73;;;12.87;;
18772;SDS011;9515;50.810;4.418;2023-02-28T06:33:35;18.37;;;12.33;;
18772;SDS011;9515;50.810;4.418;2023-02-28T06:36:02;20.37;;;12.27;;
18772;SDS011;9515;50.810;4.418;2023-02-28T06:38:29;17.37;;;12.20;;
18772;SDS011;9515;50.810;4.418;2023-02-28T06:40:55;20.17;;;12.07;;
18772;SDS011;9515;50.810;4.418;2023-02-28T06:43:22;18.07;;;12.40;;
18772;SDS011;9515;50.810;4.418;2023-02-28T06:45:49;19.93;;;12.07;;
18772;SDS011;9515;50.810;4.418;2023-02-28T06:48:14;22.40;;;12.60;;
18772;SDS011;9515;50.810;4.418;2023-02-28T06:50:40;22.47;;;12.07;;
18772;SDS011;9515;50.810;4.418;2023-02-28T06:53:06;24.30;;;11.43;;
18772;SDS011;9515;50.810;4.418;2023-02-28T06:55:31;14.30;;;11.10;;
18772;SDS011;9515;50.810;4.418;2023-02-28T06:57:57;19.33;;;11.57;;
18772;SDS011;9515;50.810;4.418;2023-02-28T07:00:23;16.20;;;11.80;;
18772;SDS011;9515;50.810;4.418;2023-02-28T07:02:50;18.10;;;11.13;;
18772;SDS011;9515;50.810;4.418;2023-02-28T07:05:15;16.17;;;11.57;;
18772;SDS011;9515;50.810;4.418;2023-02-28T07:07:41;17.40;;;11.87;;
18772;SDS011;9515;50.810;4.418;2023-02-28T07:10:10;14.90;;;10.57;;
18772;SDS011;9515;50.810;4.418;2023-02-28T07:12:36;12.83;;;10.37;;
18772;SDS011;9515;50.810;4.418;2023-02-28T07:15:03;15.07;;;10.23;;
18772;SDS011;9515;50.810;4.418;2023-02-28T07:17:30;14.60;;;10.37;;
18772;SDS011;9515;50.810;4.418;2023-02-28T07:19:55;12.13;;;9.40;;
18772;SDS011;9515;50.810;4.418;2023-02-28T07:22:21;15.13;;;9.60;;
18772;SDS011;9515;50.810;4.418;2023-02-28T07:24:47;13.67;;;9.93;;
18772;SDS011;9515;50.810;4.418;2023-02-28T07:27:13;15.63;;;8.50;;
18772;SDS011;9515;50.810;4.418;2023-02-28T07:29:48;17.17;;;9.17;;
18772;SDS011;9515;50.810;4.418;2023-02-28T07:32:14;17.20;;;9.50;;
18772;SDS011;9515;50.810;4.418;2023-02-28T07:34:40;13.33;;;9.40;;
18772;SDS011;9515;50.810;4.418;2023-02-28T07:37:05;16.03;;;9.40;;
18772;SDS011;9515;50.810;4.418;2023-02-28T07:39:31;15.47;;;9.00;;
18772;SDS011;9515;50.810;4.418;2023-02-28T07:41:57;10.83;;;8.63;;
18772;SDS011;9515;50.810;4.418;2023-02-28T07:44:24;13.13;;;9.33;;
18772;SDS011;9515;50.810;4.418;2023-02-28T07:46:50;13.37;;;8.63;;
18772;SDS011;9515;50.810;4.418;2023-02-28T07:49:17;14.27;;;8.30;;
18772;SDS011;9515;50.810;4.418;2023-02-28T07:51:43;12.40;;;7.80;;
18772;SDS011;9515;50.810;4.418;2023-02-28T07:54:09;15.67;;;8.43;;
18772;SDS011;9515;50.810;4.418;2023-02-28T07:56:34;14.23;;;8.53;;
18772;SDS011;9515;50.810;4.418;2023-02-28T07:59:00;13.27;;;7.97;;
18772;SDS011;9515;50.810;4.418;2023-02-28T08:01:26;12.53;;;7.57;;
18772;SDS011;9515;50.810;4.418;2023-02-28T08:03:52;10.73;;;7.83;;
18772;SDS011;9515;50.810;4.418;2023-02-28T08:06:21;12.43;;;7.23;;
18772;SDS011;9515;50.810;4.418;2023-02-28T08:08:48;9.87;;;8.13;;
18772;SDS011;9515;50.810;4.418;2023-02-28T08:11:15;10.50;;;7.23;;
18772;SDS011;9515;50.810;4.418;2023-02-28T08:13:41;9.47;;;7.00;;
18772;SDS011;9515;50.810;4.418;2023-02-28T08:16:08;11.90;;;7.20;;
18772;SDS011;9515;50.810;4.418;2023-02-28T08:18:35;12.50;;;7.10;;
18772;SDS011;9515;50.810;4.418;2023-02-28T08:21:08;8.97;;;7.10;;
18772;SDS011;9515;50.810;4.418;2023-02-28T08:23:35;11.03;;;7.63;;
18772;SDS011;9515;50.810;4.418;2023-02-28T08:26:01;19.37;;;9.40;;
18772;SDS011;9515;50.810;4.418;2023-02-28T08:28:27;12.27;;;8.07;;
18772;SDS011;9515;50.810;4.418;2023-02-28T08:30:53;12.00;;;7.07;;
18772;SDS011;9515;50.810;4.418;2023-02-28T08:33:19;9.70;;;6.37;;
18772;SDS011;9515;50.810;4.418;2023-02-28T08:35:45;10.33;;;6.70;;
18772;SDS011;9515;50.810;4.418;2023-02-28T08:38:11;8.10;;;5.93;;
18772;SDS011;9515;50.810;4.418;2023-02-28T08:40:37;8.83;;;5.43;;
18772;SDS011;9515;50.810;4.418;2023-02-28T08:43:02;8.73;;;5.80;;
18772;SDS011;9515;50.810;4.418;2023-02-28T08:45:28;9.87;;;5.60;;
18772;SDS011;9515;50.810;4.418;2023-02-28T08:47:54;5.63;;;5.07;;
18772;SDS011;9515;50.810;4.418;2023-02-28T08:50:20;10.83;;;6.33;;
18772;SDS011;9515;50.810;4.418;2023-02-28T08:52:46;9.60;;;5.80;;
18772;SDS011;9515;50.810;4.418;2023-02-28T08:55:12;6.07;;;4.93;;
18772;SDS011;9515;50.810;4.418;2023-02-28T08:57:37;6.87;;;5.30;;
18772;SDS011;9515;50.810;4.418;2023-02-28T09:00:03;8.40;;;5.20;;
18772;SDS011;9515;50.810;4.418;2023-02-28T09:02:30;9.27;;;5.37;;
18772;SDS011;9515;50.810;4.418;2023-02-28T09:04:56;7.03;;;4.80;;
18772;SDS011;9515;50.810;4.418;2023-02-28T09:07:23;10.00;;;5.03;;
18772;SDS011;9515;50.810;4.418;2023-02-28T09:09:49;8.40;;;4.90;;
18772;SDS011;9515;50.810;4.418;2023-02-28T09:12:23;4.53;;;4.13;;
18772;SDS011;9515;50.810;4.418;2023-02-28T09:14:50;5.37;;;4.17;;
18772;SDS011;9515;50.810;4.418;2023-02-28T09:17:16;5.13;;;3.93;;
18772;SDS011;9515;50.810;4.418;2023-02-28T09:19:42;5.97;;;4.33;;
18772;SDS011;9515;50.810;4.418;2023-02-28T09:22:08;5.73;;;4.53;;
18772;SDS011;9515;50.810;4.418;2023-02-28T09:24:35;6.40;;;3.60;;
18772;SDS011;9515;50.810;4.418;2023-02-28T09:27:01;4.00;;;3.60;;
18772;SDS011;9515;50.810;4.418;2023-02-28T09:29:27;4.77;;;3.90;;
18772;SDS011;9515;50.810;4.418;2023-02-28T09:31:53;5.43;;;4.00;;
18772;SDS011;9515;50.810;4.418;2023-02-28T09:34:19;4.53;;;4.10;;
18772;SDS011;9515;50.810;4.418;2023-02-28T09:36:45;5.30;;;4.30;;
18772;SDS011;9515;50.810;4.418;2023-02-28T09:39:11;6.37;;;3.70;;
18772;SDS011;9515;50.810;4.418;2023-02-28T09:41:39;8.13;;;3.90;;
18772;SDS011;9515;50.810;4.418;2023-02-28T09:44:16;4.67;;;3.40;;
18772;SDS011;9515;50.810;4.418;2023-02-28T09:47:05;3.63;;;2.80;;
18772;SDS011;9515;50.810;4.418;2023-02-28T09:49:45;4.30;;;3.63;;
18772;SDS011;9515;50.810;4.418;2023-02-28T09:52:14;4.20;;;3.80;;
18772;SDS011;9515;50.810;4.418;2023-02-28T09:54:46;4.27;;;3.43;;
18772;SDS011;9515;50.810;4.418;2023-02-28T09:59:49;5.77;;;3.70;;
18772;SDS011;9515;50.810;4.418;2023-02-28T10:06:13;5.13;;;3.20;;
18772;SDS011;9515;50.810;4.418;2023-02-28T10:08:20;4.57;;;3.30;;
18772;SDS011;9515;50.810;4.418;2023-02-28T10:11:00;3.30;;;3.00;;
18772;SDS011;9515;50.810;4.418;2023-02-28T10:14:03;3.47;;;2.70;;
18772;SDS011;9515;50.810;4.418;2023-02-28T10:19:20;5.90;;;2.90;;
18772;SDS011;9515;50.810;4.418;2023-02-28T10:21:58;3.13;;;2.63;;
18772;SDS011;9515;50.810;4.418;2023-02-28T10:24:33;5.43;;;2.53;;
18772;SDS011;9515;50.810;4.418;2023-02-28T10:27:22;4.73;;;2.83;;
18772;SDS011;9515;50.810;4.418;2023-02-28T10:29:54;4.53;;;2.47;;
18772;SDS011;9515;50.810;4.418;2023-02-28T10:34:53;5.47;;;2.60;;
18772;SDS011;9515;50.810;4.418;2023-02-28T10:37:23;4.30;;;2.40;;
18772;SDS011;9515;50.810;4.418;2023-02-28T10:39:49;2.20;;;2.00;;
18772;SDS011;9515;50.810;4.418;2023-02-28T10:44:47;3.73;;;2.77;;
18772;SDS011;9515;50.810;4.418;2023-02-28T10:47:16;2.80;;;2.10;;
18772;SDS011;9515;50.810;4.418;2023-02-28T10:49:48;2.63;;;2.42;;
18772;SDS011;9515;50.810;4.418;2023-02-28T10:52:15;3.30;;;2.60;;
18772;SDS011;9515;50.810;4.418;2023-02-28T10:55:18;2.70;;;2.33;;
18772;SDS011;9515;50.810;4.418;2023-02-28T10:57:45;3.67;;;2.50;;
18772;SDS011;9515;50.810;4.418;2023-02-28T11:00:16;2.90;;;2.60;;
18772;SDS011;9515;50.810;4.418;2023-02-28T11:02:46;4.93;;;2.77;;
18772;SDS011;9515;50.810;4.418;2023-02-28T11:05:23;3.05;;;2.53;;
18772;SDS011;9515;50.810;4.418;2023-02-28T11:07:52;4.72;;;2.78;;
18772;SDS011;9515;50.810;4.418;2023-02-28T11:10:21;5.25;;;2.70;;
18772;SDS011;9515;50.810;4.418;2023-02-28T11:12:53;3.13;;;2.83;;
18772;SDS011;9515;50.810;4.418;2023-02-28T11:17:52;3.30;;;2.85;;
18772;SDS011;9515;50.810;4.418;2023-02-28T11:20:28;4.10;;;2.72;;
18772;SDS011;9515;50.810;4.418;2023-02-28T11:22:55;4.25;;;2.50;;
18772;SDS011;9515;50.810;4.418;2023-02-28T11:25:24;3.88;;;2.40;;
18772;SDS011;9515;50.810;4.418;2023-02-28T11:27:54;2.50;;;2.20;;
18772;SDS011;9515;50.810;4.418;2023-02-28T11:30:28;13.38;;;3.22;;
18772;SDS011;9515;50.810;4.418;2023-02-28T11:35:46;3.75;;;2.95;;
18772;SDS011;9515;50.810;4.418;2023-02-28T11:38:14;2.92;;;2.70;;
18772;SDS011;9515;50.810;4.418;2023-02-28T11:48:55;5.30;;;3.43;;
18772;SDS011;9515;50.810;4.418;2023-02-28T11:51:41;4.83;;;3.00;;
18772;SDS011;9515;50.810;4.418;2023-02-28T11:54:27;3.33;;;3.03;;
18772;SDS011;9515;50.810;4.418;2023-02-28T12:02:28;3.50;;;3.20;;
18772;SDS011;9515;50.810;4.418;2023-02-28T12:12:58;3.15;;;2.70;;
18772;SDS011;9515;50.810;4.418;2023-02-28T12:21:18;3.00;;;2.58;;
18772;SDS011;9515;50.810;4.418;2023-02-28T12:27:05;7.20;;;2.58;;
18772;SDS011;9515;50.810;4.418;2023-02-28T12:32:30;2.72;;;2.47;;
18772;SDS011;9515;50.810;4.418;2023-02-28T12:37:36;3.00;;;2.33;;
18772;SDS011;9515;50.810;4.418;2023-02-28T12:40:12;2.78;;;2.58;;
18772;SDS011;9515;50.810;4.418;2023-02-28T12:42:52;3.03;;;2.78;;
18772;SDS011;9515;50.810;4.418;2023-02-28T12:45:23;2.67;;;2.47;;
18772;SDS011;9515;50.810;4.418;2023-02-28T12:47:55;3.33;;;2.97;;
18772;SDS011;9515;50.810;4.418;2023-02-28T12:50:26;2.60;;;2.40;;
18772;SDS011;9515;50.810;4.418;2023-02-28T12:52:58;4.28;;;3.20;;
18772;SDS011;9515;50.810;4.418;2023-02-28T13:04:33;4.40;;;2.70;;
18772;SDS011;9515;50.810;4.418;2023-02-28T13:09:52;2.70;;;2.50;;
18772;SDS011;9515;50.810;4.418;2023-02-28T13:12:19;3.50;;;3.00;;
18772;SDS011;9515;50.810;4.418;2023-02-28T13:14:47;4.53;;;3.00;;
18772;SDS011;9515;50.810;4.418;2023-02-28T13:17:21;2.65;;;2.45;;
18772;SDS011;9515;50.810;4.418;2023-02-28T13:24:52;3.28;;;2.50;;
18772;SDS011;9515;50.810;4.418;2023-02-28T13:27:23;4.47;;;2.83;;
18772;SDS011;9515;50.810;4.418;2023-02-28T13:29:57;2.72;;;2.53;;
18772;SDS011;9515;50.810;4.418;2023-02-28T13:42:53;3.60;;;2.42;;
18772;SDS011;9515;50.810;4.418;2023-02-28T13:49:54;3.05;;;2.80;;
18772;SDS011;9515;50.810;4.418;2023-02-28T13:52:42;2.63;;;2.42;;
18772;SDS011;9515;50.810;4.418;2023-02-28T13:55:31;8.35;;;3.00;;
18772;SDS011;9515;50.810;4.418;2023-02-28T14:06:47;3.80;;;2.90;;
18772;SDS011;9515;50.810;4.418;2023-02-28T14:09:17;4.07;;;2.75;;
18772;SDS011;9515;50.810;4.418;2023-02-28T14:15:27;3.03;;;2.67;;
18772;SDS011;9515;50.810;4.418;2023-02-28T14:17:55;3.38;;;2.90;;
18772;SDS011;9515;50.810;4.418;2023-02-28T14:20:25;2.88;;;2.67;;
18772;SDS011;9515;50.810;4.418;2023-02-28T14:25:47;6.22;;;2.70;;
18772;SDS011;9515;50.810;4.418;2023-02-28T14:29:15;4.00;;;2.47;;
18772;SDS011;9515;50.810;4.418;2023-02-28T14:34:26;3.28;;;2.70;;
18772;SDS011;9515;50.810;4.418;2023-02-28T14:37:19;3.75;;;2.40;;
18772;SDS011;9515;50.810;4.418;2023-02-28T14:39:50;4.82;;;2.83;;
18772;SDS011;9515;50.810;4.418;2023-02-28T14:44:56;5.80;;;3.80;;
18772;SDS011;9515;50.810;4.418;2023-02-28T14:47:22;4.03;;;2.78;;
18772;SDS011;9515;50.810;4.418;2023-02-28T14:49:51;3.97;;;2.85;;
18772;SDS011;9515;50.810;4.418;2023-02-28T14:52:19;3.80;;;3.50;;
18772;SDS011;9515;50.810;4.418;2023-02-28T14:54:53;3.22;;;2.75;;
18772;SDS011;9515;50.810;4.418;2023-02-28T14:57:28;3.10;;;2.90;;
18772;SDS011;9515;50.810;4.418;2023-02-28T15:00:00;3.67;;;3.10;;
18772;SDS011;9515;50.810;4.418;2023-02-28T15:02:37;4.95;;;2.97;;
18772;SDS011;9515;50.810;4.418;2023-02-28T15:05:26;3.47;;;3.17;;
18772;SDS011;9515;50.810;4.418;2023-02-28T15:08:01;3.43;;;3.17;;
18772;SDS011;9515;50.810;4.418;2023-02-28T15:11:00;4.28;;;3.05;;
18772;SDS011;9515;50.810;4.418;2023-02-28T15:13:34;3.40;;;3.00;;
18772;SDS011;9515;50.810;4.418;2023-02-28T15:16:01;3.58;;;3.28;;
18772;SDS011;9515;50.810;4.418;2023-02-28T15:18:43;5.18;;;3.20;;
18772;SDS011;9515;50.810;4.418;2023-02-28T15:21:15;6.07;;;3.60;;
18772;SDS011;9515;50.810;4.418;2023-02-28T15:23:45;3.78;;;3.47;;
18772;SDS011;9515;50.810;4.418;2023-02-28T15:26:15;3.90;;;3.60;;
18772;SDS011;9515;50.810;4.418;2023-02-28T15:28:44;3.78;;;3.00;;
18772;SDS011;9515;50.810;4.418;2023-02-28T15:31:19;6.00;;;3.67;;
18772;SDS011;9515;50.810;4.418;2023-02-28T15:33:52;4.88;;;3.42;;
18772;SDS011;9515;50.810;4.418;2023-02-28T15:36:19;5.83;;;3.60;;
18772;SDS011;9515;50.810;4.418;2023-02-28T15:38:51;4.60;;;4.10;;
18772;SDS011;9515;50.810;4.418;2023-02-28T15:41:24;4.40;;;3.30;;
18772;SDS011;9515;50.810;4.418;2023-02-28T15:46:43;4.40;;;3.87;;
18772;SDS011;9515;50.810;4.418;2023-02-28T15:49:21;3.43;;;3.13;;
18772;SDS011;9515;50.810;4.418;2023-02-28T15:51:49;4.20;;;3.50;;
18772;SDS011;9515;50.810;4.418;2023-02-28T15:54:23;4.57;;;3.80;;
18772;SDS011;9515;50.810;4.418;2023-02-28T15:56:55;4.03;;;3.67;;
18772;SDS011;9515;50.810;4.418;2023-02-28T15:59:23;4.20;;;3.80;;
18772;SDS011;9515;50.810;4.418;2023-02-28T16:02:11;4.30;;;3.67;;
18772;SDS011;9515;50.810;4.418;2023-02-28T16:04:59;8.17;;;3.67;;
18772;SDS011;9515;50.810;4.418;2023-02-28T16:07:25;6.63;;;3.30;;
18772;SDS011;9515;50.810;4.418;2023-02-28T16:09:51;4.37;;;3.33;;
18772;SDS011;9515;50.810;4.418;2023-02-28T16:12:17;4.07;;;3.40;;
18772;SDS011;9515;50.810;4.418;2023-02-28T16:14:44;3.97;;;3.57;;
18772;SDS011;9515;50.810;4.418;2023-02-28T16:17:20;10.57;;;3.77;;
18772;SDS011;9515;50.810;4.418;2023-02-28T16:19:48;6.07;;;3.43;;
18772;SDS011;9515;50.810;4.418;2023-02-28T16:22:13;4.57;;;3.83;;
18772;SDS011;9515;50.810;4.418;2023-02-28T16:24:39;5.37;;;4.47;;
18772;SDS011;9515;50.810;4.418;2023-02-28T16:27:05;5.03;;;3.80;;
18772;SDS011;9515;50.810;4.418;2023-02-28T16:29:32;3.93;;;3.50;;
18772;SDS011;9515;50.810;4.418;2023-02-28T16:32:00;5.83;;;4.00;;
18772;SDS011;9515;50.810;4.418;2023-02-28T16:34:28;5.63;;;3.73;;
18772;SDS011;9515;50.810;4.418;2023-02-28T16:36:54;4.33;;;3.93;;
18772;SDS011;9515;50.810;4.418;2023-02-28T16:39:20;7.27;;;4.03;;
18772;SDS011;9515;50.810;4.418;2023-02-28T16:41:45;5.33;;;3.83;;
18772;SDS011;9515;50.810;4.418;2023-02-28T16:44:29;5.17;;;3.53;;
18772;SDS011;9515;50.810;4.418;2023-02-28T16:46:59;5.37;;;3.70;;
18772;SDS011;9515;50.810;4.418;2023-02-28T16:49:26;5.57;;;3.60;;
18772;SDS011;9515;50.810;4.418;2023-02-28T16:51:52;6.47;;;3.80;;
18772;SDS011;9515;50.810;4.418;2023-02-28T16:54:18;5.37;;;3.70;;
18772;SDS011;9515;50.810;4.418;2023-02-28T16:56:44;6.77;;;3.93;;
18772;SDS011;9515;50.810;4.418;2023-02-28T16:59:12;8.60;;;4.37;;
18772;SDS011;9515;50.810;4.418;2023-02-28T17:01:40;6.40;;;4.07;;
18772;SDS011;9515;50.810;4.418;2023-02-28T17:04:05;6.07;;;3.53;;
18772;SDS011;9515;50.810;4.418;2023-02-28T17:06:34;6.30;;;3.43;;
18772;SDS011;9515;50.810;4.418;2023-02-28T17:09:00;4.50;;;3.83;;
18772;SDS011;9515;50.810;4.418;2023-02-28T17:11:31;6.13;;;3.80;;
18772;SDS011;9515;50.810;4.418;2023-02-28T17:13:57;4.23;;;3.83;;
18772;SDS011;9515;50.810;4.418;2023-02-28T17:16:29;6.00;;;3.13;;
18772;SDS011;9515;50.810;4.418;2023-02-28T17:18:58;8.60;;;4.13;;
18772;SDS011;9515;50.810;4.418;2023-02-28T17:21:25;4.53;;;4.03;;
18772;SDS011;9515;50.810;4.418;2023-02-28T17:23:52;5.47;;;4.13;;
18772;SDS011;9515;50.810;4.418;2023-02-28T17:26:18;5.60;;;3.67;;
18772;SDS011;9515;50.810;4.418;2023-02-28T17:28:46;6.20;;;4.00;;
18772;SDS011;9515;50.810;4.418;2023-02-28T17:31:15;5.23;;;3.77;;
18772;SDS011;9515;50.810;4.418;2023-02-28T17:33:41;8.03;;;4.27;;
18772;SDS011;9515;50.810;4.418;2023-02-28T17:36:14;8.80;;;4.60;;
18772;SDS011;9515;50.810;4.418;2023-02-28T17:38:41;5.57;;;4.43;;
18772;SDS011;9515;50.810;4.418;2023-02-28T17:41:09;8.07;;;4.97;;